sensor_id;sensor_type;location;lat;lon;timestamp;P1;durP1;ratioP1;P2;durP2;ratioP2
75798;SDS011;70933;44.692;37.776;2023-08-01T00:00:55;2.83;;;1.40;;
75798;SDS011;70933;44.692;37.776;2023-08-01T00:01:57;3.42;;;1.60;;
75798;SDS011;70933;44.692;37.776;2023-08-01T00:02:59;3.05;;;1.60;;
75798;SDS011;70933;44.692;37.776;2023-08-01T00:04:00;2.83;;;1.42;;
75798;SDS011;70933;44.692;37.776;2023-08-01T00:05:02;2.72;;;1.52;;
75798;SDS011;70933;44.692;37.776;2023-08-01T00:06:03;2.40;;;1.30;;
75798;SDS011;70933;44.692;37.776;2023-08-01T00:07:05;3.28;;;1.48;;
75798;SDS011;70933;44.692;37.776;2023-08-01T00:08:07;2.60;;;1.25;;
75798;SDS011;70933;44.692;37.776;2023-08-01T00:09:08;2.90;;;1.48;;
75798;SDS011;70933;44.692;37.776;2023-08-01T00:10:10;2.80;;;1.33;;
75798;SDS011;70933;44.692;37.776;2023-08-01T00:11:11;2.88;;;1.60;;
75798;SDS011;70933;44.692;37.776;2023-08-01T00:12:15;2.10;;;1.33;;
75798;SDS011;70933;44.692;37.776;2023-08-01T00:13:16;2.45;;;1.95;;
75798;SDS011;70933;44.692;37.776;2023-08-01T00:14:18;2.38;;;1.35;;
75798;SDS011;70933;44.692;37.776;2023-08-01T00:15:21;2.65;;;1.42;;
75798;SDS011;70933;44.692;37.776;2023-08-01T00:16:22;2.35;;;1.60;;
75798;SDS011;70933;44.692;37.776;2023-08-01T00:17:24;2.58;;;1.30;;
75798;SDS011;70933;44.692;37.776;2023-08-01T00:18:25;2.70;;;1.35;;
75798;SDS011;70933;44.692;37.776;2023-08-01T00:19:27;2.25;;;1.40;;
75798;SDS011;70933;44.692;37.776;2023-08-01T00:20:29;2.67;;;2.05;;
75798;SDS011;70933;44.692;37.776;2023-08-01T00:21:30;2.60;;;1.55;;
75798;SDS011;70933;44.692;37.776;2023-08-01T00:22:32;2.20;;;1.35;;
75798;SDS011;70933;44.692;37.776;2023-08-01T00:23:34;2.70;;;1.48;;
75798;SDS011;70933;44.692;37.776;2023-08-01T00:24:35;2.38;;;1.50;;
75798;SDS011;70933;44.692;37.776;2023-08-01T00:25:38;3.00;;;1.50;;
75798;SDS011;70933;44.692;37.776;2023-08-01T00:26:40;2.40;;;1.70;;
75798;SDS011;70933;44.692;37.776;2023-08-01T00:27:41;2.30;;;1.80;;
75798;SDS011;70933;44.692;37.776;2023-08-01T00:28:43;3.63;;;1.50;;
75798;SDS011;70933;44.692;37.776;2023-08-01T00:29:45;3.47;;;1.70;;
75798;SDS011;70933;44.692;37.776;2023-08-01T00:30:47;2.75;;;1.50;;
75798;SDS011;70933;44.692;37.776;2023-08-01T00:31:48;2.40;;;1.38;;
75798;SDS011;70933;44.692;37.776;2023-08-01T00:32:50;2.10;;;1.13;;
75798;SDS011;70933;44.692;37.776;2023-08-01T00:33:52;2.78;;;1.60;;
75798;SDS011;70933;44.692;37.776;2023-08-01T00:34:53;2.70;;;1.63;;
75798;SDS011;70933;44.692;37.776;2023-08-01T00:35:54;2.50;;;1.48;;
75798;SDS011;70933;44.692;37.776;2023-08-01T00:36:56;2.28;;;1.45;;
75798;SDS011;70933;44.692;37.776;2023-08-01T00:37:59;2.40;;;1.40;;
75798;SDS011;70933;44.692;37.776;2023-08-01T00:39:00;2.83;;;1.33;;
75798;SDS011;70933;44.692;37.776;2023-08-01T00:40:02;2.45;;;1.30;;
75798;SDS011;70933;44.692;37.776;2023-08-01T00:41:04;2.70;;;1.95;;
75798;SDS011;70933;44.692;37.776;2023-08-01T00:42:06;2.83;;;1.50;;
75798;SDS011;70933;44.692;37.776;2023-08-01T00:43:07;3.50;;;1.33;;
75798;SDS011;70933;44.692;37.776;2023-08-01T00:44:09;3.17;;;1.50;;
75798;SDS011;70933;44.692;37.776;2023-08-01T00:45:10;2.08;;;1.42;;
75798;SDS011;70933;44.692;37.776;2023-08-01T00:46:12;2.40;;;1.60;;
75798;SDS011;70933;44.692;37.776;2023-08-01T00:47:14;2.22;;;1.25;;
75798;SDS011;70933;44.692;37.776;2023-08-01T00:48:16;2.83;;;1.30;;
75798;SDS011;70933;44.692;37.776;2023-08-01T00:50:21;2.53;;;1.60;;
75798;SDS011;70933;44.692;37.776;2023-08-01T00:51:24;2.53;;;1.55;;
75798;SDS011;70933;44.692;37.776;2023-08-01T00:52:25;2.45;;;1.52;;
75798;SDS011;70933;44.692;37.776;2023-08-01T00:53:27;2.75;;;1.20;;
75798;SDS011;70933;44.692;37.776;2023-08-01T00:54:30;2.75;;;1.17;;
75798;SDS011;70933;44.692;37.776;2023-08-01T00:55:37;3.22;;;1.40;;
75798;SDS011;70933;44.692;37.776;2023-08-01T00:56:39;2.53;;;1.38;;
75798;SDS011;70933;44.692;37.776;2023-08-01T00:57:40;2.28;;;1.27;;
75798;SDS011;70933;44.692;37.776;2023-08-01T00:58:43;2.80;;;1.52;;
75798;SDS011;70933;44.692;37.776;2023-08-01T00:59:45;2.42;;;1.38;;
75798;SDS011;70933;44.692;37.776;2023-08-01T01:00:46;3.05;;;1.38;;
75798;SDS011;70933;44.692;37.776;2023-08-01T01:01:49;3.28;;;1.58;;
75798;SDS011;70933;44.692;37.776;2023-08-01T01:02:50;2.38;;;1.55;;
75798;SDS011;70933;44.692;37.776;2023-08-01T01:03:52;2.25;;;1.55;;
75798;SDS011;70933;44.692;37.776;2023-08-01T01:04:54;2.15;;;1.50;;
75798;SDS011;70933;44.692;37.776;2023-08-01T01:07:22;1.92;;;1.35;;
75798;SDS011;70933;44.692;37.776;2023-08-01T01:08:26;2.65;;;1.85;;
75798;SDS011;70933;44.692;37.776;2023-08-01T01:09:28;2.63;;;1.40;;
75798;SDS011;70933;44.692;37.776;2023-08-01T01:10:33;2.17;;;1.33;;
75798;SDS011;70933;44.692;37.776;2023-08-01T01:11:34;3.00;;;1.67;;
75798;SDS011;70933;44.692;37.776;2023-08-01T01:12:36;1.90;;;1.30;;
75798;SDS011;70933;44.692;37.776;2023-08-01T01:13:37;2.33;;;1.23;;
75798;SDS011;70933;44.692;37.776;2023-08-01T01:14:39;2.72;;;1.30;;
75798;SDS011;70933;44.692;37.776;2023-08-01T01:15:40;2.60;;;1.23;;
75798;SDS011;70933;44.692;37.776;2023-08-01T01:16:42;2.35;;;1.60;;
75798;SDS011;70933;44.692;37.776;2023-08-01T01:17:43;3.35;;;1.58;;
75798;SDS011;70933;44.692;37.776;2023-08-01T01:18:45;2.17;;;1.38;;
75798;SDS011;70933;44.692;37.776;2023-08-01T01:19:47;2.53;;;1.38;;
75798;SDS011;70933;44.692;37.776;2023-08-01T01:20:48;2.90;;;1.50;;
75798;SDS011;70933;44.692;37.776;2023-08-01T01:22:05;2.67;;;1.10;;
75798;SDS011;70933;44.692;37.776;2023-08-01T01:23:13;1.88;;;0.95;;
75798;SDS011;70933;44.692;37.776;2023-08-01T01:24:15;2.15;;;1.20;;
75798;SDS011;70933;44.692;37.776;2023-08-01T01:25:19;2.13;;;1.33;;
75798;SDS011;70933;44.692;37.776;2023-08-01T01:26:22;1.92;;;0.98;;
75798;SDS011;70933;44.692;37.776;2023-08-01T01:27:24;2.60;;;1.23;;
75798;SDS011;70933;44.692;37.776;2023-08-01T01:28:27;2.78;;;1.50;;
75798;SDS011;70933;44.692;37.776;2023-08-01T01:29:31;2.15;;;1.20;;
75798;SDS011;70933;44.692;37.776;2023-08-01T01:30:34;3.42;;;1.35;;
75798;SDS011;70933;44.692;37.776;2023-08-01T01:31:36;2.50;;;1.27;;
75798;SDS011;70933;44.692;37.776;2023-08-01T01:32:39;2.55;;;1.40;;
75798;SDS011;70933;44.692;37.776;2023-08-01T01:33:41;2.42;;;1.17;;
75798;SDS011;70933;44.692;37.776;2023-08-01T01:34:44;2.88;;;2.20;;
75798;SDS011;70933;44.692;37.776;2023-08-01T01:35:47;2.08;;;1.20;;
75798;SDS011;70933;44.692;37.776;2023-08-01T01:36:48;1.65;;;1.17;;
75798;SDS011;70933;44.692;37.776;2023-08-01T01:37:50;2.22;;;1.02;;
75798;SDS011;70933;44.692;37.776;2023-08-01T01:38:51;2.50;;;1.27;;
75798;SDS011;70933;44.692;37.776;2023-08-01T01:39:54;1.83;;;1.30;;
75798;SDS011;70933;44.692;37.776;2023-08-01T01:40:55;2.67;;;1.33;;
75798;SDS011;70933;44.692;37.776;2023-08-01T01:41:57;2.25;;;1.23;;
75798;SDS011;70933;44.692;37.776;2023-08-01T01:42:59;1.88;;;1.15;;
75798;SDS011;70933;44.692;37.776;2023-08-01T01:44:01;2.90;;;1.40;;
75798;SDS011;70933;44.692;37.776;2023-08-01T01:45:03;2.85;;;1.15;;
75798;SDS011;70933;44.692;37.776;2023-08-01T01:46:06;2.67;;;1.08;;
75798;SDS011;70933;44.692;37.776;2023-08-01T01:47:08;1.80;;;1.13;;
75798;SDS011;70933;44.692;37.776;2023-08-01T01:48:09;2.42;;;1.23;;
75798;SDS011;70933;44.692;37.776;2023-08-01T01:49:11;2.53;;;0.90;;
75798;SDS011;70933;44.692;37.776;2023-08-01T01:50:12;2.42;;;1.10;;
75798;SDS011;70933;44.692;37.776;2023-08-01T01:51:14;1.85;;;1.20;;
75798;SDS011;70933;44.692;37.776;2023-08-01T01:52:16;2.30;;;0.90;;
75798;SDS011;70933;44.692;37.776;2023-08-01T01:53:17;2.33;;;1.45;;
75798;SDS011;70933;44.692;37.776;2023-08-01T01:54:18;1.92;;;0.93;;
75798;SDS011;70933;44.692;37.776;2023-08-01T01:55:21;2.33;;;1.10;;
75798;SDS011;70933;44.692;37.776;2023-08-01T01:56:22;2.60;;;1.58;;
75798;SDS011;70933;44.692;37.776;2023-08-01T01:57:24;2.33;;;1.52;;
75798;SDS011;70933;44.692;37.776;2023-08-01T01:58:26;2.42;;;1.35;;
75798;SDS011;70933;44.692;37.776;2023-08-01T01:59:28;2.35;;;1.23;;
75798;SDS011;70933;44.692;37.776;2023-08-01T02:00:29;3.03;;;1.00;;
75798;SDS011;70933;44.692;37.776;2023-08-01T02:01:31;2.30;;;1.13;;
75798;SDS011;70933;44.692;37.776;2023-08-01T02:02:32;2.25;;;0.85;;
75798;SDS011;70933;44.692;37.776;2023-08-01T02:03:34;2.03;;;0.95;;
75798;SDS011;70933;44.692;37.776;2023-08-01T02:04:36;2.10;;;0.93;;
75798;SDS011;70933;44.692;37.776;2023-08-01T02:05:41;2.67;;;1.25;;
75798;SDS011;70933;44.692;37.776;2023-08-01T02:06:42;2.33;;;1.13;;
75798;SDS011;70933;44.692;37.776;2023-08-01T02:07:44;2.42;;;1.00;;
75798;SDS011;70933;44.692;37.776;2023-08-01T02:08:45;2.97;;;1.10;;
75798;SDS011;70933;44.692;37.776;2023-08-01T02:09:47;2.10;;;1.27;;
75798;SDS011;70933;44.692;37.776;2023-08-01T02:10:49;2.22;;;1.10;;
75798;SDS011;70933;44.692;37.776;2023-08-01T02:11:51;2.22;;;0.80;;
75798;SDS011;70933;44.692;37.776;2023-08-01T02:12:53;2.30;;;0.80;;
75798;SDS011;70933;44.692;37.776;2023-08-01T02:13:54;2.17;;;1.08;;
75798;SDS011;70933;44.692;37.776;2023-08-01T02:14:56;2.17;;;1.20;;
75798;SDS011;70933;44.692;37.776;2023-08-01T02:15:58;1.77;;;0.70;;
75798;SDS011;70933;44.692;37.776;2023-08-01T02:17:00;1.75;;;0.90;;
75798;SDS011;70933;44.692;37.776;2023-08-01T02:18:02;1.85;;;1.05;;
75798;SDS011;70933;44.692;37.776;2023-08-01T02:19:03;2.42;;;1.00;;
75798;SDS011;70933;44.692;37.776;2023-08-01T02:20:08;2.65;;;0.90;;
75798;SDS011;70933;44.692;37.776;2023-08-01T02:21:10;2.28;;;1.13;;
75798;SDS011;70933;44.692;37.776;2023-08-01T02:22:11;2.17;;;1.15;;
75798;SDS011;70933;44.692;37.776;2023-08-01T02:23:13;2.05;;;1.10;;
75798;SDS011;70933;44.692;37.776;2023-08-01T02:24:15;2.13;;;1.42;;
75798;SDS011;70933;44.692;37.776;2023-08-01T02:25:17;1.67;;;0.75;;
75798;SDS011;70933;44.692;37.776;2023-08-01T02:26:18;1.70;;;0.70;;
75798;SDS011;70933;44.692;37.776;2023-08-01T02:27:20;1.70;;;0.90;;
75798;SDS011;70933;44.692;37.776;2023-08-01T02:28:22;1.80;;;1.38;;
75798;SDS011;70933;44.692;37.776;2023-08-01T02:29:24;1.73;;;0.80;;
75798;SDS011;70933;44.692;37.776;2023-08-01T02:30:25;2.03;;;1.15;;
75798;SDS011;70933;44.692;37.776;2023-08-01T02:31:27;2.20;;;0.95;;
75798;SDS011;70933;44.692;37.776;2023-08-01T02:32:28;1.40;;;0.50;;
75798;SDS011;70933;44.692;37.776;2023-08-01T02:33:30;1.75;;;0.85;;
75798;SDS011;70933;44.692;37.776;2023-08-01T02:34:31;2.05;;;0.80;;
75798;SDS011;70933;44.692;37.776;2023-08-01T02:35:33;1.52;;;0.85;;
75798;SDS011;70933;44.692;37.776;2023-08-01T02:36:34;2.33;;;1.05;;
75798;SDS011;70933;44.692;37.776;2023-08-01T02:37:36;2.47;;;0.93;;
75798;SDS011;70933;44.692;37.776;2023-08-01T02:38:37;1.85;;;0.93;;
75798;SDS011;70933;44.692;37.776;2023-08-01T02:39:39;1.85;;;0.70;;
75798;SDS011;70933;44.692;37.776;2023-08-01T02:40:41;1.77;;;0.70;;
75798;SDS011;70933;44.692;37.776;2023-08-01T02:41:43;2.13;;;1.55;;
75798;SDS011;70933;44.692;37.776;2023-08-01T02:42:44;2.40;;;0.90;;
75798;SDS011;70933;44.692;37.776;2023-08-01T02:43:46;1.80;;;0.82;;
75798;SDS011;70933;44.692;37.776;2023-08-01T02:44:47;1.50;;;0.60;;
75798;SDS011;70933;44.692;37.776;2023-08-01T02:45:49;1.98;;;0.95;;
75798;SDS011;70933;44.692;37.776;2023-08-01T02:46:50;1.25;;;0.43;;
75798;SDS011;70933;44.692;37.776;2023-08-01T02:47:52;2.08;;;0.65;;
75798;SDS011;70933;44.692;37.776;2023-08-01T02:48:53;1.55;;;0.77;;
75798;SDS011;70933;44.692;37.776;2023-08-01T02:49:55;1.83;;;0.90;;
75798;SDS011;70933;44.692;37.776;2023-08-01T02:50:56;2.05;;;0.60;;
75798;SDS011;70933;44.692;37.776;2023-08-01T02:51:58;2.13;;;0.47;;
75798;SDS011;70933;44.692;37.776;2023-08-01T02:52:59;2.13;;;0.95;;
75798;SDS011;70933;44.692;37.776;2023-08-01T02:54:01;1.50;;;0.70;;
75798;SDS011;70933;44.692;37.776;2023-08-01T02:55:03;2.22;;;0.80;;
75798;SDS011;70933;44.692;37.776;2023-08-01T02:56:04;2.05;;;0.88;;
75798;SDS011;70933;44.692;37.776;2023-08-01T02:57:08;1.50;;;0.70;;
75798;SDS011;70933;44.692;37.776;2023-08-01T02:58:09;2.30;;;0.85;;
75798;SDS011;70933;44.692;37.776;2023-08-01T02:59:11;1.70;;;0.70;;
75798;SDS011;70933;44.692;37.776;2023-08-01T03:00:13;2.42;;;0.80;;
75798;SDS011;70933;44.692;37.776;2023-08-01T03:01:14;2.63;;;0.60;;
75798;SDS011;70933;44.692;37.776;2023-08-01T03:02:17;1.60;;;0.90;;
75798;SDS011;70933;44.692;37.776;2023-08-01T03:03:18;1.52;;;0.90;;
75798;SDS011;70933;44.692;37.776;2023-08-01T03:04:20;2.78;;;0.70;;
75798;SDS011;70933;44.692;37.776;2023-08-01T03:05:21;1.70;;;0.43;;
75798;SDS011;70933;44.692;37.776;2023-08-01T03:06:23;1.80;;;0.60;;
75798;SDS011;70933;44.692;37.776;2023-08-01T03:07:24;1.90;;;1.00;;
75798;SDS011;70933;44.692;37.776;2023-08-01T03:08:26;2.22;;;0.80;;
75798;SDS011;70933;44.692;37.776;2023-08-01T03:09:28;1.70;;;1.10;;
75798;SDS011;70933;44.692;37.776;2023-08-01T03:10:30;1.70;;;0.90;;
75798;SDS011;70933;44.692;37.776;2023-08-01T03:11:31;1.50;;;0.55;;
75798;SDS011;70933;44.692;37.776;2023-08-01T03:12:33;1.90;;;0.68;;
75798;SDS011;70933;44.692;37.776;2023-08-01T03:13:34;1.50;;;0.30;;
75798;SDS011;70933;44.692;37.776;2023-08-01T03:14:36;1.70;;;0.60;;
75798;SDS011;70933;44.692;37.776;2023-08-01T03:15:37;2.45;;;0.55;;
75798;SDS011;70933;44.692;37.776;2023-08-01T03:16:39;1.52;;;0.60;;
75798;SDS011;70933;44.692;37.776;2023-08-01T03:17:40;2.58;;;0.73;;
75798;SDS011;70933;44.692;37.776;2023-08-01T03:18:43;2.20;;;0.50;;
75798;SDS011;70933;44.692;37.776;2023-08-01T03:19:45;1.67;;;0.50;;
75798;SDS011;70933;44.692;37.776;2023-08-01T03:20:47;1.65;;;0.43;;
75798;SDS011;70933;44.692;37.776;2023-08-01T03:21:48;1.83;;;0.63;;
75798;SDS011;70933;44.692;37.776;2023-08-01T03:22:50;1.65;;;0.60;;
75798;SDS011;70933;44.692;37.776;2023-08-01T03:23:52;1.30;;;0.40;;
75798;SDS011;70933;44.692;37.776;2023-08-01T03:24:53;1.60;;;0.45;;
75798;SDS011;70933;44.692;37.776;2023-08-01T03:25:57;1.73;;;0.77;;
75798;SDS011;70933;44.692;37.776;2023-08-01T03:26:58;2.03;;;0.80;;
75798;SDS011;70933;44.692;37.776;2023-08-01T03:28:00;2.42;;;0.75;;
75798;SDS011;70933;44.692;37.776;2023-08-01T03:29:02;1.92;;;0.80;;
75798;SDS011;70933;44.692;37.776;2023-08-01T03:30:04;1.30;;;0.40;;
75798;SDS011;70933;44.692;37.776;2023-08-01T03:31:09;1.65;;;0.70;;
75798;SDS011;70933;44.692;37.776;2023-08-01T03:32:11;1.55;;;0.43;;
75798;SDS011;70933;44.692;37.776;2023-08-01T03:33:12;1.52;;;0.70;;
75798;SDS011;70933;44.692;37.776;2023-08-01T03:34:14;2.75;;;0.52;;
75798;SDS011;70933;44.692;37.776;2023-08-01T03:35:15;1.70;;;0.70;;
75798;SDS011;70933;44.692;37.776;2023-08-01T03:36:17;1.38;;;0.30;;
75798;SDS011;70933;44.692;37.776;2023-08-01T03:37:20;2.22;;;0.70;;
75798;SDS011;70933;44.692;37.776;2023-08-01T03:38:21;1.90;;;0.75;;
75798;SDS011;70933;44.692;37.776;2023-08-01T03:39:23;1.83;;;0.70;;
75798;SDS011;70933;44.692;37.776;2023-08-01T03:40:24;1.30;;;0.77;;
75798;SDS011;70933;44.692;37.776;2023-08-01T03:41:26;1.80;;;0.65;;
75798;SDS011;70933;44.692;37.776;2023-08-01T03:42:28;1.58;;;0.55;;
75798;SDS011;70933;44.692;37.776;2023-08-01T03:43:30;1.85;;;0.68;;
75798;SDS011;70933;44.692;37.776;2023-08-01T03:44:31;1.30;;;0.52;;
75798;SDS011;70933;44.692;37.776;2023-08-01T03:45:34;1.90;;;0.85;;
75798;SDS011;70933;44.692;37.776;2023-08-01T03:46:35;2.17;;;0.70;;
75798;SDS011;70933;44.692;37.776;2023-08-01T03:47:37;2.28;;;0.50;;
75798;SDS011;70933;44.692;37.776;2023-08-01T03:48:38;1.27;;;0.68;;
75798;SDS011;70933;44.692;37.776;2023-08-01T03:49:40;1.60;;;0.57;;
75798;SDS011;70933;44.692;37.776;2023-08-01T03:50:42;1.75;;;0.70;;
75798;SDS011;70933;44.692;37.776;2023-08-01T03:51:43;2.05;;;0.80;;
75798;SDS011;70933;44.692;37.776;2023-08-01T03:52:46;1.75;;;0.82;;
75798;SDS011;70933;44.692;37.776;2023-08-01T03:53:48;2.13;;;0.70;;
75798;SDS011;70933;44.692;37.776;2023-08-01T03:54:53;2.58;;;1.35;;
75798;SDS011;70933;44.692;37.776;2023-08-01T03:55:55;2.33;;;0.70;;
75798;SDS011;70933;44.692;37.776;2023-08-01T03:56:58;1.88;;;0.68;;
75798;SDS011;70933;44.692;37.776;2023-08-01T03:57:59;1.75;;;0.70;;
75798;SDS011;70933;44.692;37.776;2023-08-01T03:59:00;1.95;;;0.70;;
75798;SDS011;70933;44.692;37.776;2023-08-01T04:00:06;1.40;;;0.63;;
75798;SDS011;70933;44.692;37.776;2023-08-01T04:01:14;1.75;;;0.77;;
75798;SDS011;70933;44.692;37.776;2023-08-01T04:02:15;1.55;;;0.68;;
75798;SDS011;70933;44.692;37.776;2023-08-01T04:03:18;2.28;;;0.80;;
75798;SDS011;70933;44.692;37.776;2023-08-01T04:04:19;2.75;;;0.85;;
75798;SDS011;70933;44.692;37.776;2023-08-01T04:05:21;2.10;;;0.70;;
75798;SDS011;70933;44.692;37.776;2023-08-01T04:06:22;1.77;;;0.73;;
75798;SDS011;70933;44.692;37.776;2023-08-01T04:07:25;1.73;;;0.70;;
75798;SDS011;70933;44.692;37.776;2023-08-01T04:08:26;1.92;;;1.10;;
75798;SDS011;70933;44.692;37.776;2023-08-01T04:09:28;1.85;;;0.77;;
75798;SDS011;70933;44.692;37.776;2023-08-01T04:10:29;1.20;;;0.80;;
75798;SDS011;70933;44.692;37.776;2023-08-01T04:11:31;1.73;;;0.82;;
75798;SDS011;70933;44.692;37.776;2023-08-01T04:12:33;1.45;;;0.63;;
75798;SDS011;70933;44.692;37.776;2023-08-01T04:13:35;2.00;;;0.70;;
75798;SDS011;70933;44.692;37.776;2023-08-01T04:14:36;1.42;;;0.55;;
75798;SDS011;70933;44.692;37.776;2023-08-01T04:15:38;2.63;;;1.50;;
75798;SDS011;70933;44.692;37.776;2023-08-01T04:16:39;2.42;;;0.68;;
75798;SDS011;70933;44.692;37.776;2023-08-01T04:17:41;1.95;;;0.82;;
75798;SDS011;70933;44.692;37.776;2023-08-01T04:18:43;2.00;;;0.82;;
75798;SDS011;70933;44.692;37.776;2023-08-01T04:19:44;1.27;;;0.50;;
75798;SDS011;70933;44.692;37.776;2023-08-01T04:20:45;2.17;;;0.50;;
75798;SDS011;70933;44.692;37.776;2023-08-01T04:21:47;1.75;;;0.80;;
75798;SDS011;70933;44.692;37.776;2023-08-01T04:22:49;1.45;;;0.70;;
75798;SDS011;70933;44.692;37.776;2023-08-01T04:23:50;1.75;;;0.60;;
75798;SDS011;70933;44.692;37.776;2023-08-01T04:24:52;1.50;;;0.60;;
75798;SDS011;70933;44.692;37.776;2023-08-01T04:25:53;2.25;;;0.60;;
75798;SDS011;70933;44.692;37.776;2023-08-01T04:26:55;1.80;;;0.90;;
75798;SDS011;70933;44.692;37.776;2023-08-01T04:27:56;1.73;;;0.77;;
75798;SDS011;70933;44.692;37.776;2023-08-01T04:28:57;2.22;;;0.73;;
75798;SDS011;70933;44.692;37.776;2023-08-01T04:29:59;1.98;;;0.80;;
75798;SDS011;70933;44.692;37.776;2023-08-01T04:31:01;1.63;;;0.65;;
75798;SDS011;70933;44.692;37.776;2023-08-01T04:32:03;1.77;;;0.88;;
75798;SDS011;70933;44.692;37.776;2023-08-01T04:33:04;1.90;;;0.63;;
75798;SDS011;70933;44.692;37.776;2023-08-01T04:34:06;1.95;;;1.42;;
75798;SDS011;70933;44.692;37.776;2023-08-01T04:35:07;2.25;;;0.80;;
75798;SDS011;70933;44.692;37.776;2023-08-01T04:36:09;1.48;;;0.52;;
75798;SDS011;70933;44.692;37.776;2023-08-01T04:37:11;1.20;;;0.50;;
75798;SDS011;70933;44.692;37.776;2023-08-01T04:38:12;2.03;;;0.70;;
75798;SDS011;70933;44.692;37.776;2023-08-01T04:39:14;2.05;;;0.60;;
75798;SDS011;70933;44.692;37.776;2023-08-01T04:40:15;1.58;;;0.50;;
75798;SDS011;70933;44.692;37.776;2023-08-01T04:41:17;1.52;;;0.40;;
75798;SDS011;70933;44.692;37.776;2023-08-01T04:42:19;1.35;;;0.52;;
75798;SDS011;70933;44.692;37.776;2023-08-01T04:43:20;1.25;;;0.57;;
75798;SDS011;70933;44.692;37.776;2023-08-01T04:44:22;1.60;;;0.63;;
75798;SDS011;70933;44.692;37.776;2023-08-01T04:45:23;1.75;;;0.90;;
75798;SDS011;70933;44.692;37.776;2023-08-01T04:46:25;1.92;;;0.70;;
75798;SDS011;70933;44.692;37.776;2023-08-01T04:47:26;2.20;;;1.10;;
75798;SDS011;70933;44.692;37.776;2023-08-01T04:48:28;1.80;;;0.50;;
75798;SDS011;70933;44.692;37.776;2023-08-01T04:49:29;1.48;;;0.88;;
75798;SDS011;70933;44.692;37.776;2023-08-01T04:50:31;1.52;;;0.47;;
75798;SDS011;70933;44.692;37.776;2023-08-01T04:51:32;1.38;;;0.50;;
75798;SDS011;70933;44.692;37.776;2023-08-01T04:52:34;1.45;;;0.70;;
75798;SDS011;70933;44.692;37.776;2023-08-01T04:53:35;1.92;;;0.75;;
75798;SDS011;70933;44.692;37.776;2023-08-01T04:54:37;1.63;;;0.82;;
75798;SDS011;70933;44.692;37.776;2023-08-01T04:55:39;1.75;;;0.52;;
75798;SDS011;70933;44.692;37.776;2023-08-01T04:56:41;1.27;;;0.57;;
75798;SDS011;70933;44.692;37.776;2023-08-01T04:57:42;1.83;;;0.70;;
75798;SDS011;70933;44.692;37.776;2023-08-01T04:58:44;2.15;;;0.70;;
75798;SDS011;70933;44.692;37.776;2023-08-01T04:59:45;2.17;;;0.32;;
75798;SDS011;70933;44.692;37.776;2023-08-01T05:00:47;1.77;;;0.77;;
75798;SDS011;70933;44.692;37.776;2023-08-01T05:01:48;1.98;;;0.80;;
75798;SDS011;70933;44.692;37.776;2023-08-01T05:02:50;1.38;;;0.80;;
75798;SDS011;70933;44.692;37.776;2023-08-01T05:03:51;4.75;;;1.00;;
75798;SDS011;70933;44.692;37.776;2023-08-01T05:04:53;2.13;;;0.63;;
75798;SDS011;70933;44.692;37.776;2023-08-01T05:05:54;3.10;;;0.65;;
75798;SDS011;70933;44.692;37.776;2023-08-01T05:06:56;3.35;;;0.50;;
75798;SDS011;70933;44.692;37.776;2023-08-01T05:07:58;2.22;;;0.63;;
75798;SDS011;70933;44.692;37.776;2023-08-01T05:08:59;1.38;;;0.22;;
75798;SDS011;70933;44.692;37.776;2023-08-01T05:10:01;1.63;;;0.50;;
75798;SDS011;70933;44.692;37.776;2023-08-01T05:11:06;2.00;;;0.60;;
75798;SDS011;70933;44.692;37.776;2023-08-01T05:12:07;1.70;;;0.70;;
75798;SDS011;70933;44.692;37.776;2023-08-01T05:13:10;1.80;;;0.50;;
75798;SDS011;70933;44.692;37.776;2023-08-01T05:14:12;1.90;;;0.98;;
75798;SDS011;70933;44.692;37.776;2023-08-01T05:15:14;2.20;;;0.85;;
75798;SDS011;70933;44.692;37.776;2023-08-01T05:16:20;1.67;;;0.60;;
75798;SDS011;70933;44.692;37.776;2023-08-01T05:17:22;1.58;;;0.40;;
75798;SDS011;70933;44.692;37.776;2023-08-01T05:18:23;3.03;;;0.40;;
75798;SDS011;70933;44.692;37.776;2023-08-01T05:19:24;2.75;;;0.52;;
75798;SDS011;70933;44.692;37.776;2023-08-01T05:20:26;2.80;;;0.80;;
75798;SDS011;70933;44.692;37.776;2023-08-01T05:21:31;3.30;;;0.82;;
75798;SDS011;70933;44.692;37.776;2023-08-01T05:22:32;2.15;;;0.40;;
75798;SDS011;70933;44.692;37.776;2023-08-01T05:23:35;2.75;;;0.60;;
75798;SDS011;70933;44.692;37.776;2023-08-01T05:24:37;3.08;;;0.57;;
75798;SDS011;70933;44.692;37.776;2023-08-01T05:25:38;4.32;;;0.80;;
75798;SDS011;70933;44.692;37.776;2023-08-01T05:26:40;2.15;;;0.40;;
75798;SDS011;70933;44.692;37.776;2023-08-01T05:27:41;1.70;;;0.68;;
75798;SDS011;70933;44.692;37.776;2023-08-01T05:29:46;4.80;;;1.00;;
75798;SDS011;70933;44.692;37.776;2023-08-01T05:30:47;1.85;;;0.45;;
75798;SDS011;70933;44.692;37.776;2023-08-01T05:31:49;2.47;;;0.68;;
75798;SDS011;70933;44.692;37.776;2023-08-01T05:32:50;2.63;;;0.80;;
75798;SDS011;70933;44.692;37.776;2023-08-01T05:33:52;7.53;;;0.80;;
75798;SDS011;70933;44.692;37.776;2023-08-01T05:34:53;4.28;;;0.75;;
75798;SDS011;70933;44.692;37.776;2023-08-01T05:35:55;4.03;;;0.73;;
75798;SDS011;70933;44.692;37.776;2023-08-01T05:36:56;2.28;;;0.40;;
75798;SDS011;70933;44.692;37.776;2023-08-01T05:37:58;2.22;;;0.50;;
75798;SDS011;70933;44.692;37.776;2023-08-01T05:39:01;2.75;;;0.95;;
75798;SDS011;70933;44.692;37.776;2023-08-01T05:40:03;2.45;;;0.55;;
75798;SDS011;70933;44.692;37.776;2023-08-01T05:41:05;2.55;;;0.68;;
75798;SDS011;70933;44.692;37.776;2023-08-01T05:42:07;1.40;;;0.95;;
75798;SDS011;70933;44.692;37.776;2023-08-01T05:43:11;2.45;;;0.60;;
75798;SDS011;70933;44.692;37.776;2023-08-01T05:44:13;2.20;;;0.90;;
75798;SDS011;70933;44.692;37.776;2023-08-01T05:45:14;2.67;;;0.77;;
75798;SDS011;70933;44.692;37.776;2023-08-01T05:46:16;3.33;;;0.70;;
75798;SDS011;70933;44.692;37.776;2023-08-01T05:47:18;2.08;;;0.82;;
75798;SDS011;70933;44.692;37.776;2023-08-01T05:48:19;2.00;;;0.40;;
75798;SDS011;70933;44.692;37.776;2023-08-01T05:49:21;1.63;;;0.45;;
75798;SDS011;70933;44.692;37.776;2023-08-01T05:50:23;1.35;;;0.45;;
75798;SDS011;70933;44.692;37.776;2023-08-01T05:51:24;1.45;;;0.40;;
75798;SDS011;70933;44.692;37.776;2023-08-01T05:52:26;2.22;;;0.50;;
75798;SDS011;70933;44.692;37.776;2023-08-01T05:53:28;1.88;;;0.63;;
75798;SDS011;70933;44.692;37.776;2023-08-01T05:54:29;1.73;;;0.60;;
75798;SDS011;70933;44.692;37.776;2023-08-01T05:55:31;1.95;;;0.43;;
75798;SDS011;70933;44.692;37.776;2023-08-01T05:56:32;1.75;;;0.40;;
75798;SDS011;70933;44.692;37.776;2023-08-01T05:57:34;1.80;;;0.30;;
75798;SDS011;70933;44.692;37.776;2023-08-01T05:58:35;2.10;;;0.43;;
75798;SDS011;70933;44.692;37.776;2023-08-01T05:59:37;3.05;;;0.52;;
75798;SDS011;70933;44.692;37.776;2023-08-01T06:00:38;1.45;;;0.57;;
75798;SDS011;70933;44.692;37.776;2023-08-01T06:01:40;2.08;;;0.30;;
75798;SDS011;70933;44.692;37.776;2023-08-01T06:02:42;2.15;;;0.93;;
75798;SDS011;70933;44.692;37.776;2023-08-01T06:03:43;1.65;;;0.50;;
75798;SDS011;70933;44.692;37.776;2023-08-01T06:04:45;1.80;;;0.50;;
75798;SDS011;70933;44.692;37.776;2023-08-01T06:05:47;1.85;;;0.40;;
75798;SDS011;70933;44.692;37.776;2023-08-01T06:06:49;2.22;;;0.50;;
75798;SDS011;70933;44.692;37.776;2023-08-01T06:07:51;1.73;;;0.38;;
75798;SDS011;70933;44.692;37.776;2023-08-01T06:08:52;2.63;;;0.63;;
75798;SDS011;70933;44.692;37.776;2023-08-01T06:09:54;1.40;;;0.30;;
75798;SDS011;70933;44.692;37.776;2023-08-01T06:10:56;1.52;;;0.38;;